Terminal Aerodrome Forecast
Issued by NWS

Home | Current Version | Previous Version | Text Only | Print | Product List | Glossary Off
Versions: 1 2 3 4 5 6 7 8 9 10 11 12 13 14 15 16 17 18

000
FTUS43 KABR 280538
TAFATY
TAF
KATY 280538Z 2806/2906 VRB06KT P6SM OVC250
      TEMPO 2806/2808 -SHRA BKN090 OVC120
     FM281400 19013G21KT P6SM SCT250
     FM282200 21009KT P6SM -SHRA VCTS SCT050CB BKN250
     FM290400 23006KT P6SM OVC250=

USA.gov is the U.S. government's official web portal to all federal, state and local government web resources and services.